createdAt,value
2016-06-19T00:00:55.187Z,18.34
2016-06-19T00:01:55.206Z,18.31
2016-06-19T00:02:55.210Z,18.41
2016-06-19T00:03:55.213Z,18.26
2016-06-19T00:04:55.232Z,18.29
2016-06-19T00:05:55.860Z,18.26
2016-06-19T00:06:55.270Z,18.35
2016-06-19T00:07:55.289Z,18.31
2016-06-19T00:08:55.323Z,18.31
2016-06-19T00:09:55.391Z,18.22
2016-06-19T00:10:55.377Z,18.2
2016-06-19T00:11:55.397Z,18.18
2016-06-19T00:12:56.041Z,18.25
2016-06-19T00:13:55.451Z,18.26
2016-06-19T00:14:56.095Z,18.19
2016-06-19T00:15:55.489Z,18.18
2016-06-19T00:16:55.523Z,18.19
2016-06-19T00:17:56.183Z,18.15
2016-06-19T00:18:56.186Z,18.13
2016-06-19T00:19:56.222Z,18.18
2016-06-19T00:20:55.632Z,18.18
2016-06-19T00:21:55.651Z,18.16
2016-06-19T00:22:55.669Z,18.04
2016-06-19T00:23:56.438Z,18.05
2016-06-19T00:24:55.739Z,18.11
2016-06-19T00:25:56.383Z,18.11
2016-06-19T00:26:55.777Z,18.05
2016-06-19T00:27:55.812Z,18.08
2016-06-19T00:28:55.830Z,18.05
2016-06-19T00:29:55.849Z,18.07
2016-06-19T00:30:56.494Z,18.07
2016-06-19T00:31:56.716Z,18.08
2016-06-19T00:32:55.923Z,18.15
2016-06-19T00:33:55.942Z,18.11
2016-06-19T00:34:55.977Z,18.1
2016-06-19T00:35:55.995Z,18
2016-06-19T00:36:56.015Z,17.97
2016-06-19T00:37:56.049Z,18.07
2016-06-19T00:38:56.084Z,17.98
2016-06-19T00:39:56.088Z,18.05
2016-06-19T00:40:56.747Z,17.97
2016-06-19T00:41:56.235Z,17.95
2016-06-19T00:42:56.177Z,18
2016-06-19T00:43:56.195Z,17.89
2016-06-19T00:44:56.215Z,17.95
2016-06-19T00:45:56.249Z,17.97
2016-06-19T00:46:56.924Z,17.94
2016-06-19T00:47:56.302Z,17.85
2016-06-19T00:48:56.322Z,17.87
2016-06-19T00:49:56.341Z,17.86
2016-06-19T00:50:57.001Z,17.85
2016-06-19T00:51:57.020Z,17.83
2016-06-19T00:52:56.429Z,17.8
2016-06-19T00:53:56.448Z,17.82
2016-06-19T00:54:56.482Z,17.8
2016-06-19T00:55:56.502Z,17.74
2016-06-19T00:56:57.131Z,17.82
2016-06-19T00:57:56.540Z,17.74
2016-06-19T00:58:57.325Z,17.7
2016-06-19T00:59:56.594Z,17.74
2016-06-19T01:00:56.614Z,17.74
2016-06-19T01:01:56.648Z,17.74
2016-06-19T01:02:56.668Z,17.71
2016-06-19T01:03:56.702Z,17.7
2016-06-19T01:04:56.720Z,17.78
2016-06-19T01:05:56.756Z,17.72
2016-06-19T01:06:56.774Z,17.68
2016-06-19T01:07:56.793Z,17.64
2016-06-19T01:08:56.859Z,17.65
2016-06-19T01:09:56.862Z,17.63
2016-06-19T01:10:56.882Z,17.7
2016-06-19T01:11:57.511Z,17.64
2016-06-19T01:12:56.920Z,17.56
2016-06-19T01:13:56.940Z,17.65
2016-06-19T01:14:57.599Z,17.65
2016-06-19T01:15:57.009Z,17.68
2016-06-19T01:16:57.012Z,17.68
2016-06-19T01:17:57.048Z,17.6
2016-06-19T01:18:57.066Z,17.52
2016-06-19T01:19:57.710Z,17.57
2016-06-19T01:20:57.730Z,17.6
2016-06-19T01:21:57.186Z,17.57
2016-06-19T01:22:57.173Z,17.59
2016-06-19T01:23:57.802Z,17.51
2016-06-19T01:24:57.837Z,17.54
2016-06-19T01:25:57.247Z,17.56
2016-06-19T01:26:57.297Z,17.57
2016-06-19T01:27:57.285Z,17.48
2016-06-19T01:28:57.366Z,17.54
2016-06-19T01:29:57.339Z,17.57
2016-06-19T01:30:57.358Z,17.49
2016-06-19T01:31:57.393Z,17.46
2016-06-19T01:32:57.411Z,17.52
2016-06-19T01:33:57.462Z,17.48
2016-06-19T01:34:57.465Z,17.56
2016-06-19T01:35:57.485Z,17.38
2016-06-19T01:36:57.519Z,17.44
2016-06-19T01:37:57.553Z,17.49
2016-06-19T01:38:57.573Z,17.38
2016-06-19T01:39:57.592Z,17.31
2016-06-19T01:40:57.611Z,17.39
2016-06-19T01:41:57.630Z,17.41
2016-06-19T01:42:57.665Z,17.34
2016-06-19T01:43:57.684Z,17.38
2016-06-19T01:44:58.328Z,17.38
2016-06-19T01:45:57.769Z,17.39
2016-06-19T01:46:57.756Z,17.38
2016-06-19T01:47:57.776Z,17.39
2016-06-19T01:48:57.811Z,17.31
2016-06-19T01:49:57.830Z,17.29
2016-06-19T01:50:57.864Z,17.36
2016-06-19T01:51:57.883Z,17.29
2016-06-19T01:52:58.528Z,17.29
2016-06-19T01:53:58.562Z,17.31
2016-06-19T01:54:57.960Z,17.23
2016-06-19T01:55:57.984Z,17.24
2016-06-19T01:56:58.022Z,17.27
2016-06-19T01:57:58.044Z,17.19
2016-06-19T01:58:58.082Z,17.2
2016-06-19T01:59:58.102Z,17.19
2016-06-19T02:00:58.123Z,17.24
2016-06-19T02:01:58.768Z,17.29
2016-06-19T02:02:58.180Z,17.23
2016-06-19T02:03:58.199Z,17.23
2016-06-19T02:04:58.235Z,17.23
2016-06-19T02:05:58.254Z,17.19
2016-06-19T02:06:58.274Z,17.15
2016-06-19T02:07:58.309Z,17.15
2016-06-19T02:08:58.329Z,17.12
2016-06-19T02:09:58.394Z,17.11
2016-06-19T02:10:58.383Z,17.08
2016-06-19T02:11:58.401Z,17.12
2016-06-19T02:12:58.420Z,17.09
2016-06-19T02:13:59.065Z,17.12
2016-06-19T02:14:58.475Z,17.06
2016-06-19T02:15:58.492Z,17.09
2016-06-19T02:16:58.528Z,17.11
2016-06-19T02:17:58.547Z,17.11
2016-06-19T02:18:58.567Z,17.11
2016-06-19T02:19:58.600Z,17.14
2016-06-19T02:20:59.260Z,17.15
2016-06-19T02:21:58.655Z,17.02
2016-06-19T02:22:58.658Z,17.02
2016-06-19T02:23:58.692Z,17.06
2016-06-19T02:24:58.712Z,17.04
2016-06-19T02:25:59.357Z,16.99
2016-06-19T02:26:58.766Z,17.01
2016-06-19T02:27:58.784Z,17.08
2016-06-19T02:28:58.820Z,17.09
2016-06-19T02:29:58.838Z,16.91
2016-06-19T02:30:58.874Z,16.96
2016-06-19T02:31:59.502Z,17.06
2016-06-19T02:32:58.912Z,16.96
2016-06-19T02:33:58.946Z,17.14
2016-06-19T02:34:59.059Z,16.9
2016-06-19T02:35:59.000Z,17.14
2016-06-19T02:36:59.019Z,16.96
2016-06-19T02:37:59.038Z,16.99
2016-06-19T02:38:59.072Z,17.04
2016-06-19T02:39:59.075Z,16.99
2016-06-19T02:40:59.111Z,17.02
2016-06-19T02:41:59.130Z,16.9
2016-06-19T02:42:59.149Z,17.06
2016-06-19T02:43:59.169Z,17.01
2016-06-19T02:44:59.203Z,16.96
2016-06-19T02:45:59.221Z,17.02
2016-06-19T02:46:59.257Z,16.97
2016-06-19T02:47:59.901Z,17.06
2016-06-19T02:48:59.294Z,16.94
2016-06-19T02:49:59.314Z,16.99
2016-06-19T02:50:59.349Z,16.97
2016-06-19T02:51:59.400Z,16.99
2016-06-19T02:52:59.386Z,17.01
2016-06-19T02:53:59.406Z,16.89
2016-06-19T02:54:59.441Z,16.94
2016-06-19T02:55:59.460Z,16.9
2016-06-19T02:56:59.494Z,16.89
2016-06-19T02:58:00.748Z,16.89
2016-06-19T02:58:59.549Z,16.89
2016-06-19T02:59:59.567Z,16.96
2016-06-19T03:00:59.586Z,16.86
2016-06-19T03:02:00.231Z,16.94
2016-06-19T03:02:59.640Z,16.93
2016-06-19T03:03:59.659Z,16.91
2016-06-19T03:05:00.303Z,16.91
2016-06-19T03:06:00.323Z,16.87
2016-06-19T03:06:59.732Z,16.93
2016-06-19T03:07:59.752Z,16.96
2016-06-19T03:08:59.770Z,16.89
2016-06-19T03:09:59.804Z,16.91
2016-06-19T03:10:59.824Z,16.9
2016-06-19T03:11:59.843Z,16.79
2016-06-19T03:13:00.487Z,16.87
2016-06-19T03:13:59.898Z,16.78
2016-06-19T03:15:00.541Z,16.89
2016-06-19T03:15:59.935Z,16.81
2016-06-19T03:16:59.970Z,16.78
2016-06-19T03:17:59.990Z,16.9
2016-06-19T03:19:00.039Z,16.84
2016-06-19T03:20:00.043Z,16.84
2016-06-19T03:21:00.062Z,16.79
2016-06-19T03:22:00.081Z,16.86
2016-06-19T03:23:00.115Z,16.9
2016-06-19T03:24:00.135Z,16.78
2016-06-19T03:25:00.170Z,16.9
2016-06-19T03:26:00.173Z,16.81
2016-06-19T03:27:00.207Z,16.78
2016-06-19T03:28:00.883Z,16.9
2016-06-19T03:29:00.261Z,16.81
2016-06-19T03:30:00.281Z,16.86
2016-06-19T03:31:00.315Z,16.86
2016-06-19T03:32:00.318Z,16.91
2016-06-19T03:33:00.353Z,16.89
2016-06-19T03:34:00.373Z,16.9
2016-06-19T03:35:00.407Z,16.94
2016-06-19T03:36:00.426Z,16.91
2016-06-19T03:37:00.445Z,16.89
2016-06-19T03:38:00.495Z,16.9
2016-06-19T03:39:00.484Z,16.93
2016-06-19T03:40:00.518Z,16.87
2016-06-19T03:41:00.553Z,16.96
2016-06-19T03:42:00.572Z,16.86
2016-06-19T03:43:01.216Z,17.02
2016-06-19T03:44:00.626Z,16.91
2016-06-19T03:45:00.644Z,16.86
2016-06-19T03:46:00.664Z,16.96
2016-06-19T03:47:01.308Z,16.91
2016-06-19T03:48:01.982Z,17.05
2016-06-19T03:49:00.737Z,16.99
2016-06-19T03:50:01.381Z,17.01
2016-06-19T03:51:00.790Z,17.01
2016-06-19T03:52:00.809Z,17.04
2016-06-19T03:53:00.829Z,17.04
2016-06-19T03:54:00.864Z,17.04
2016-06-19T03:55:00.882Z,17.01
2016-06-19T03:56:00.933Z,16.96
2016-06-19T03:57:00.921Z,16.94
2016-06-19T03:58:00.956Z,17.05
2016-06-19T03:59:00.974Z,17.06
2016-06-19T04:00:00.994Z,16.96
2016-06-19T04:01:01.028Z,16.96
2016-06-19T04:02:01.047Z,16.94
2016-06-19T04:03:01.067Z,17.04
2016-06-19T04:04:01.101Z,16.99
2016-06-19T04:05:01.120Z,17.01
2016-06-19T04:06:01.139Z,17.05
2016-06-19T04:07:01.159Z,16.97
2016-06-19T04:08:01.193Z,16.94
2016-06-19T04:09:01.228Z,16.9
2016-06-19T04:10:01.247Z,16.97
2016-06-19T04:11:01.266Z,17.04
2016-06-19T04:12:01.287Z,16.89
2016-06-19T04:13:01.934Z,17.01
2016-06-19T04:14:01.344Z,16.99
2016-06-19T04:15:01.990Z,16.94
2016-06-19T04:16:01.401Z,17.01
2016-06-19T04:17:02.045Z,17.05
2016-06-19T04:18:01.441Z,16.97
2016-06-19T04:19:01.491Z,16.9
2016-06-19T04:20:01.496Z,16.93
2016-06-19T04:21:01.531Z,17.04
2016-06-19T04:22:01.534Z,16.99
2016-06-19T04:23:02.178Z,16.96
2016-06-19T04:24:01.619Z,16.93
2016-06-19T04:25:01.608Z,16.97
2016-06-19T04:26:01.626Z,17.02
2016-06-19T04:27:01.661Z,17.15
2016-06-19T04:28:01.696Z,16.93
2016-06-19T04:29:02.324Z,16.91
2016-06-19T04:30:01.718Z,16.99
2016-06-19T04:31:01.753Z,17.04
2016-06-19T04:32:01.771Z,17.06
2016-06-19T04:33:01.807Z,17.08
2016-06-19T04:34:01.842Z,17.04
2016-06-19T04:35:02.501Z,17.06
2016-06-19T04:36:01.863Z,17.01
2016-06-19T04:37:01.883Z,17.02
2016-06-19T04:38:02.559Z,17.04
2016-06-19T04:39:01.936Z,17.01
2016-06-19T04:40:01.971Z,17.05
2016-06-19T04:41:02.616Z,17.01
2016-06-19T04:42:02.009Z,17.06
2016-06-19T04:43:02.045Z,17.04
2016-06-19T04:44:02.064Z,17.04
2016-06-19T04:45:02.707Z,17.01
2016-06-19T04:46:02.102Z,17.08
2016-06-19T04:47:02.137Z,17.06
2016-06-19T04:48:02.155Z,17.09
2016-06-19T04:49:02.174Z,17.04
2016-06-19T04:50:02.209Z,17.01
2016-06-19T04:51:02.244Z,17.02
2016-06-19T04:52:02.248Z,17.11
2016-06-19T04:53:02.266Z,17.14
2016-06-19T04:54:02.300Z,17.19
2016-06-19T04:55:02.945Z,17.11
2016-06-19T04:56:02.340Z,17.11
2016-06-19T04:57:02.374Z,17.16
2016-06-19T04:58:02.408Z,17.16
2016-06-19T04:59:02.412Z,17.08
2016-06-19T05:00:02.446Z,17.12
2016-06-19T05:01:02.482Z,17.2
2016-06-19T05:02:02.533Z,17.2
2016-06-19T05:03:03.754Z,17.2
2016-06-19T05:04:02.539Z,17.19
2016-06-19T05:05:02.574Z,17.22
2016-06-19T05:06:03.202Z,17.23
2016-06-19T05:07:02.612Z,17.26
2016-06-19T05:08:02.631Z,17.23
2016-06-19T05:09:02.665Z,17.27
2016-06-19T05:10:02.685Z,17.24
2016-06-19T05:11:02.720Z,17.26
2016-06-19T05:12:02.738Z,17.3
2016-06-19T05:13:04.007Z,17.31
2016-06-19T05:14:02.777Z,17.36
2016-06-19T05:15:03.420Z,17.39
2016-06-19T05:16:02.831Z,17.39
2016-06-19T05:17:02.849Z,17.36
2016-06-19T05:18:02.884Z,17.3
2016-06-19T05:19:03.528Z,17.33
2016-06-19T05:20:02.922Z,17.36
2016-06-19T05:21:02.957Z,17.49
2016-06-19T05:22:02.992Z,17.48
2016-06-19T05:23:03.620Z,17.6
2016-06-19T05:24:03.030Z,17.54
2016-06-19T05:25:03.065Z,17.52
2016-06-19T05:26:03.068Z,17.57
2016-06-19T05:27:03.087Z,17.49
2016-06-19T05:28:03.122Z,17.52
2016-06-19T05:29:03.141Z,17.54
2016-06-19T05:30:03.160Z,17.65
2016-06-19T05:31:03.194Z,17.63
2016-06-19T05:32:03.215Z,17.65
2016-06-19T05:33:03.248Z,17.67
2016-06-19T05:34:03.877Z,17.67
2016-06-19T05:35:03.912Z,17.65
2016-06-19T05:36:03.306Z,17.68
2016-06-19T05:37:03.341Z,17.7
2016-06-19T05:38:03.359Z,17.65
2016-06-19T05:39:04.628Z,17.71
2016-06-19T05:40:03.414Z,17.72
2016-06-19T05:41:04.058Z,17.72
2016-06-19T05:42:04.076Z,17.76
2016-06-19T05:43:04.112Z,17.79
2016-06-19T05:44:03.505Z,17.76
2016-06-19T05:45:03.556Z,17.79
2016-06-19T05:46:04.168Z,17.76
2016-06-19T05:47:04.188Z,17.86
2016-06-19T05:48:03.613Z,17.85
2016-06-19T05:49:04.256Z,17.85
2016-06-19T05:50:03.682Z,17.86
2016-06-19T05:51:06.686Z,17.87
2016-06-19T05:52:03.721Z,17.9
2016-06-19T05:53:03.723Z,17.89
2016-06-19T05:54:04.369Z,17.97
2016-06-19T05:55:03.777Z,18.01
2016-06-19T05:56:03.797Z,18.03
2016-06-19T05:57:03.816Z,18.03
2016-06-19T05:58:03.851Z,18.07
2016-06-19T05:59:03.870Z,17.97
2016-06-19T06:00:03.888Z,18.04
2016-06-19T06:01:03.923Z,18.07
2016-06-19T06:02:03.943Z,18.03
2016-06-19T06:03:04.586Z,18.1
2016-06-19T06:04:03.996Z,18.01
2016-06-19T06:05:04.640Z,18.08
2016-06-19T06:06:04.034Z,18.08
2016-06-19T06:07:04.069Z,18.16
2016-06-19T06:08:04.089Z,18.07
2016-06-19T06:09:04.842Z,18.15
2016-06-19T06:10:04.142Z,18.11
2016-06-19T06:11:04.896Z,18.19
2016-06-19T06:12:04.196Z,18.1
2016-06-19T06:13:04.215Z,18.22
2016-06-19T06:14:04.235Z,18.2
2016-06-19T06:15:04.269Z,18.22
2016-06-19T06:16:04.288Z,18.29
2016-06-19T06:17:04.307Z,18.34
2016-06-19T06:18:04.998Z,18.33
2016-06-19T06:19:05.016Z,18.38
2016-06-19T06:20:04.395Z,18.38
2016-06-19T06:21:04.414Z,18.41
2016-06-19T06:22:04.434Z,18.38
2016-06-19T06:23:05.062Z,18.5
2016-06-19T06:24:04.487Z,18.49
2016-06-19T06:25:04.507Z,18.52
2016-06-19T06:26:04.525Z,18.56
2016-06-19T06:27:04.560Z,18.52
2016-06-19T06:28:04.586Z,18.62
2016-06-19T06:29:04.626Z,18.6
2016-06-19T06:30:04.651Z,18.65
2016-06-19T06:31:04.676Z,18.65
2016-06-19T06:32:04.715Z,18.65
2016-06-19T06:33:04.737Z,18.56
2016-06-19T06:34:04.759Z,18.74
2016-06-19T06:35:05.421Z,18.68
2016-06-19T06:36:04.817Z,18.63
2016-06-19T06:37:04.838Z,18.75
2016-06-19T06:38:04.873Z,18.63
2016-06-19T06:39:05.519Z,18.77
2016-06-19T06:40:04.929Z,18.8
2016-06-19T06:41:04.949Z,18.8
2016-06-19T06:42:04.969Z,18.74
2016-06-19T06:43:04.987Z,18.74
2016-06-19T06:44:05.022Z,18.74
2016-06-19T06:45:05.041Z,18.74
2016-06-19T06:46:05.077Z,18.78
2016-06-19T06:47:05.096Z,18.77
2016-06-19T06:48:05.739Z,18.81
2016-06-19T06:49:05.790Z,18.77
2016-06-19T06:50:05.168Z,18.75
2016-06-19T06:51:05.812Z,18.86
2016-06-19T06:52:05.222Z,18.77
2016-06-19T06:53:05.241Z,18.86
2016-06-19T06:54:05.901Z,18.86
2016-06-19T06:55:05.920Z,18.81
2016-06-19T06:56:05.330Z,18.92
2016-06-19T06:57:05.349Z,18.86
2016-06-19T06:58:05.993Z,18.89
2016-06-19T06:59:05.387Z,18.88
2016-06-19T07:00:05.422Z,18.88
2016-06-19T07:01:05.456Z,18.95
2016-06-19T07:02:05.475Z,18.9
2016-06-19T07:03:05.495Z,18.9
2016-06-19T07:04:05.513Z,19.02
2016-06-19T07:05:05.736Z,18.92
2016-06-19T07:06:05.583Z,18.93
2016-06-19T07:07:05.587Z,18.99
2016-06-19T07:08:06.247Z,19.08
2016-06-19T07:09:06.280Z,19.14
2016-06-19T07:10:06.284Z,19.14
2016-06-19T07:11:06.318Z,19.26
2016-06-19T07:12:05.744Z,19.19
2016-06-19T07:13:05.748Z,19.3
2016-06-19T07:14:05.767Z,19.31
2016-06-19T07:15:05.786Z,19.31
2016-06-19T07:16:05.820Z,19.33
2016-06-19T07:17:05.839Z,19.3
2016-06-19T07:18:05.875Z,19.39
2016-06-19T07:19:05.909Z,19.41
2016-06-19T07:20:05.913Z,19.37
2016-06-19T07:21:05.933Z,19.45
2016-06-19T07:22:05.966Z,19.45
2016-06-19T07:23:05.985Z,19.45
2016-06-19T07:24:06.629Z,19.52
2016-06-19T07:25:06.039Z,19.58
2016-06-19T07:26:06.683Z,19.49
2016-06-19T07:27:06.093Z,19.64
2016-06-19T07:28:06.738Z,19.55
2016-06-19T07:29:06.771Z,19.63
2016-06-19T07:30:06.166Z,19.58
2016-06-19T07:31:06.810Z,19.58
2016-06-19T07:32:06.220Z,19.55
2016-06-19T07:33:06.255Z,19.67
2016-06-19T07:34:06.273Z,19.7
2016-06-19T07:35:06.293Z,19.73
2016-06-19T07:36:06.327Z,19.76
2016-06-19T07:37:07.612Z,19.82
2016-06-19T07:38:06.366Z,19.85
2016-06-19T07:39:06.415Z,19.88
2016-06-19T07:40:06.419Z,19.94
2016-06-19T07:41:06.438Z,20.07
2016-06-19T07:42:06.473Z,20.06
2016-06-19T07:43:06.492Z,20.22
2016-06-19T07:44:07.136Z,20.24
2016-06-19T07:45:07.155Z,20.24
2016-06-19T07:46:06.565Z,20.31
2016-06-19T07:47:06.600Z,20.34
2016-06-19T07:48:06.619Z,20.37
2016-06-19T07:49:06.654Z,20.36
2016-06-19T07:50:07.297Z,20.44
2016-06-19T07:51:06.691Z,20.48
2016-06-19T07:52:06.726Z,20.48
2016-06-19T07:53:06.746Z,20.44
2016-06-19T07:54:06.780Z,20.52
2016-06-19T07:55:07.440Z,20.48
2016-06-19T07:56:06.834Z,20.6
2016-06-19T07:57:06.853Z,20.59
2016-06-19T07:58:06.872Z,20.66
2016-06-19T07:59:07.532Z,20.6
2016-06-19T08:00:06.926Z,20.6
2016-06-19T08:01:07.570Z,20.58
2016-06-19T08:02:06.980Z,20.69
2016-06-19T08:03:07.014Z,20.7
2016-06-19T08:04:07.643Z,20.75
2016-06-19T08:05:07.068Z,20.72
2016-06-19T08:06:07.088Z,20.74
2016-06-19T08:07:07.732Z,20.8
2016-06-19T08:08:07.125Z,20.75
2016-06-19T08:09:07.786Z,20.84
2016-06-19T08:10:07.194Z,20.81
2016-06-19T08:11:07.214Z,20.8
2016-06-19T08:12:07.233Z,20.85
2016-06-19T08:13:07.877Z,20.87
2016-06-19T08:14:07.303Z,20.9
2016-06-19T08:15:07.306Z,20.93
2016-06-19T08:16:07.341Z,20.92
2016-06-19T08:17:08.000Z,21.02
2016-06-19T08:18:07.394Z,21.14
2016-06-19T08:19:07.414Z,21.11
2016-06-19T08:20:07.464Z,21.21
2016-06-19T08:21:08.093Z,21.15
2016-06-19T08:22:08.111Z,21.36
2016-06-19T08:23:07.522Z,21.33
2016-06-19T08:24:07.556Z,21.35
2016-06-19T08:25:08.278Z,21.39
2016-06-19T08:26:07.594Z,21.45
2016-06-19T08:27:07.675Z,21.58
2016-06-19T08:28:07.664Z,21.61
2016-06-19T08:29:08.292Z,21.67
2016-06-19T08:30:07.702Z,21.67
2016-06-19T08:31:07.752Z,21.73
2016-06-19T08:32:07.756Z,21.83
2016-06-19T08:33:07.774Z,21.88
2016-06-19T08:34:07.810Z,21.89
2016-06-19T08:35:07.828Z,21.99
2016-06-19T08:36:07.862Z,21.95
2016-06-19T08:37:07.882Z,22.02
2016-06-19T08:38:07.916Z,22.04
2016-06-19T08:39:08.561Z,21.96
2016-06-19T08:40:07.971Z,22.04
2016-06-19T08:41:08.021Z,22.14
2016-06-19T08:42:08.024Z,22.13
2016-06-19T08:43:08.058Z,22.25
2016-06-19T08:44:08.080Z,22.28
2016-06-19T08:45:08.728Z,22.22
2016-06-19T08:46:08.140Z,22.33
2016-06-19T08:47:08.177Z,22.44
2016-06-19T08:48:08.199Z,22.51
2016-06-19T08:49:08.219Z,22.51
2016-06-19T08:50:08.255Z,22.44
2016-06-19T08:51:08.275Z,22.5
2016-06-19T08:52:08.295Z,22.6
2016-06-19T08:53:08.331Z,22.63
2016-06-19T08:54:08.351Z,22.68
2016-06-19T08:55:08.386Z,22.88
2016-06-19T08:56:08.406Z,22.85
2016-06-19T08:57:08.440Z,23.02
2016-06-19T08:58:08.476Z,23.17
2016-06-19T08:59:08.495Z,23.15
2016-06-19T09:00:08.514Z,23.21
2016-06-19T09:01:09.283Z,23.4
2016-06-19T09:02:08.584Z,23.54
2016-06-19T09:03:08.602Z,23.62
2016-06-19T09:04:08.637Z,23.8
2016-06-19T09:05:09.281Z,23.8
2016-06-19T09:06:08.691Z,23.87
2016-06-19T09:07:08.710Z,23.88
2016-06-19T09:08:08.744Z,24.02
2016-06-19T09:09:08.967Z,24.01
2016-06-19T09:10:08.876Z,24.11
2016-06-19T09:11:08.817Z,24.16
2016-06-19T09:12:08.852Z,24.29
2016-06-19T09:13:09.496Z,24.21
2016-06-19T09:14:08.906Z,24.23
2016-06-19T09:15:08.925Z,24.26
2016-06-19T09:16:08.960Z,24.32
2016-06-19T09:17:08.980Z,24.28
2016-06-19T09:18:09.123Z,24.24
2016-06-19T09:19:10.690Z,24.24
2016-06-19T09:20:09.146Z,24.18
2016-06-19T09:21:09.322Z,24.24
2016-06-19T09:22:09.121Z,24.24
2016-06-19T09:23:09.156Z,24.28
2016-06-19T09:24:09.190Z,24.28
2016-06-19T09:25:09.210Z,24.23
2016-06-19T09:26:09.323Z,24.3
2016-06-19T09:27:09.904Z,24.32
2016-06-19T09:28:09.377Z,24.36
2016-06-19T09:29:09.379Z,24.42
2016-06-19T09:30:09.430Z,24.51
2016-06-19T09:31:09.387Z,24.43
2016-06-19T09:32:09.422Z,24.51
2016-06-19T09:33:09.425Z,24.48
2016-06-19T09:34:09.460Z,24.54
2016-06-19T09:35:09.494Z,24.61
2016-06-19T09:36:09.513Z,24.6
2016-06-19T09:37:09.548Z,24.77
2016-06-19T09:38:09.583Z,24.84
2016-06-19T09:39:10.212Z,24.85
2016-06-19T09:40:10.245Z,24.93
2016-06-19T09:41:09.655Z,25.06
2016-06-19T09:42:09.691Z,25.16
2016-06-19T09:43:09.709Z,25.25
2016-06-19T09:44:09.744Z,25.31
2016-06-19T09:45:10.388Z,25.47
2016-06-19T09:46:09.798Z,25.51
2016-06-19T09:47:09.833Z,25.6
2016-06-19T09:48:09.851Z,25.66
2016-06-19T09:49:09.886Z,25.75
2016-06-19T09:50:09.905Z,25.9
2016-06-19T09:51:09.940Z,25.96
2016-06-19T09:52:10.179Z,26.13
2016-06-19T09:53:10.619Z,26.19
2016-06-19T09:54:10.028Z,26.33
2016-06-19T09:55:10.064Z,26.34
2016-06-19T09:56:10.082Z,26.47
2016-06-19T09:57:10.133Z,26.48
2016-06-19T09:58:10.152Z,26.56
2016-06-19T09:59:10.171Z,26.59
2016-06-19T10:00:10.237Z,26.62
2016-06-19T10:01:10.224Z,26.7
2016-06-19T10:02:10.260Z,26.65
2016-06-19T10:03:10.279Z,26.65
2016-06-19T10:04:10.313Z,26.65
2016-06-19T10:05:10.348Z,26.65
2016-06-19T10:06:10.367Z,26.74
2016-06-19T10:07:10.402Z,26.73
2016-06-19T10:08:11.077Z,26.77
2016-06-19T10:09:10.471Z,26.88
2016-06-19T10:10:10.491Z,26.95
2016-06-19T10:11:11.337Z,26.92
2016-06-19T10:12:10.559Z,26.95
2016-06-19T10:13:11.204Z,26.93
2016-06-19T10:14:10.613Z,27.02
2016-06-19T10:15:10.648Z,27.05
2016-06-19T10:16:10.667Z,27.03
2016-06-19T10:17:11.312Z,27.08
2016-06-19T10:18:10.736Z,27.08
2016-06-19T10:19:10.756Z,27.15
2016-06-19T10:20:10.790Z,27.17
2016-06-19T10:21:10.810Z,27.22
2016-06-19T10:22:11.469Z,27.22
2016-06-19T10:23:10.895Z,27.21
2016-06-19T10:24:11.523Z,27.25
2016-06-19T10:25:10.948Z,27.36
2016-06-19T10:26:11.186Z,27.32
2016-06-19T10:27:10.986Z,27.45
2016-06-19T10:28:11.037Z,27.49
2016-06-19T10:29:11.681Z,27.51
2016-06-19T10:30:11.700Z,27.51
2016-06-19T10:31:11.111Z,27.52
2016-06-19T10:32:11.770Z,27.64
2016-06-19T10:33:11.805Z,27.68
2016-06-19T10:34:11.855Z,27.73
2016-06-19T10:35:11.249Z,27.73
2016-06-19T10:36:11.268Z,27.78
2016-06-19T10:37:11.302Z,27.78
2016-06-19T10:38:11.962Z,27.82
2016-06-19T10:39:11.356Z,27.9
2016-06-19T10:40:11.391Z,27.95
2016-06-19T10:41:12.035Z,28.08
2016-06-19T10:42:11.664Z,27.96
2016-06-19T10:43:11.511Z,28.12
2016-06-19T10:44:11.515Z,28.1
2016-06-19T10:45:11.548Z,28.19
2016-06-19T10:46:11.583Z,28.19
2016-06-19T10:47:11.602Z,28.19
2016-06-19T10:48:11.637Z,28.2
2016-06-19T10:49:11.673Z,28.17
2016-06-19T10:50:11.691Z,28.17
2016-06-19T10:51:11.726Z,28.1
2016-06-19T10:52:11.791Z,28.07
2016-06-19T10:53:11.796Z,28.04
2016-06-19T10:54:11.815Z,28.02
2016-06-19T10:55:11.864Z,28.11
2016-06-19T10:56:11.883Z,28.01
2016-06-19T10:57:11.918Z,28.05
2016-06-19T10:58:11.938Z,28.04
2016-06-19T10:59:11.972Z,27.98
2016-06-19T11:00:12.007Z,28.05
2016-06-19T11:01:12.044Z,28.01
2016-06-19T11:02:12.080Z,28
2016-06-19T11:03:12.116Z,28.08
2016-06-19T11:04:12.137Z,28.08
2016-06-19T11:05:12.172Z,28.05
2016-06-19T11:06:12.192Z,28.11
2016-06-19T11:07:12.227Z,28.05
2016-06-19T11:08:12.262Z,28.1
2016-06-19T11:09:12.282Z,28.05
2016-06-19T11:10:12.317Z,28.11
2016-06-19T11:11:12.352Z,28.12
2016-06-19T11:12:12.419Z,28.01
2016-06-19T11:13:12.422Z,28.1
2016-06-19T11:14:12.458Z,28.05
2016-06-19T11:15:12.508Z,28.04
2016-06-19T11:16:12.511Z,28.08
2016-06-19T11:17:12.546Z,28.05
2016-06-19T11:18:12.580Z,28.07
2016-06-19T11:19:12.600Z,28.1
2016-06-19T11:20:12.634Z,28.15
2016-06-19T11:21:12.670Z,28.2
2016-06-19T11:22:12.704Z,28.2
2016-06-19T11:23:12.723Z,28.26
2016-06-19T11:24:12.758Z,28.3
2016-06-19T11:25:12.808Z,28.35
2016-06-19T11:26:13.437Z,28.42
2016-06-19T11:27:12.909Z,28.47
2016-06-19T11:28:12.881Z,28.47
2016-06-19T11:29:12.915Z,28.52
2016-06-19T11:30:12.951Z,28.62
2016-06-19T11:31:13.610Z,28.63
2016-06-19T11:32:13.629Z,28.69
2016-06-19T11:33:13.054Z,28.75
2016-06-19T11:34:13.073Z,28.78
2016-06-19T11:35:13.124Z,28.82
2016-06-19T11:36:13.142Z,28.84
2016-06-19T11:37:13.178Z,28.84
2016-06-19T11:38:13.212Z,28.82
2016-06-19T11:39:13.232Z,28.81
2016-06-19T11:40:13.266Z,28.89
2016-06-19T11:41:13.300Z,28.89
2016-06-19T11:42:13.336Z,28.97
2016-06-19T11:43:13.371Z,29.02
2016-06-19T11:44:13.405Z,29.04
2016-06-19T11:45:13.440Z,29.08
2016-06-19T11:46:13.459Z,29.05
2016-06-19T11:47:13.494Z,29.16
2016-06-19T11:48:13.528Z,29.27
2016-06-19T11:49:13.547Z,29.32
2016-06-19T11:50:13.582Z,29.49
2016-06-19T11:51:13.632Z,29.54
2016-06-19T11:52:14.276Z,29.51
2016-06-19T11:53:13.671Z,29.66
2016-06-19T11:54:13.705Z,29.69
2016-06-19T11:55:13.756Z,29.75
2016-06-19T11:56:14.400Z,29.84
2016-06-19T11:57:14.435Z,29.98
2016-06-19T11:58:13.859Z,30.06
2016-06-19T11:59:14.488Z,30.03
2016-06-19T12:00:13.898Z,30.23
2016-06-19T12:01:14.558Z,30.25
2016-06-19T12:02:13.967Z,30.32
2016-06-19T12:03:14.002Z,30.43
2016-06-19T12:04:14.053Z,30.55
2016-06-19T12:05:14.072Z,30.61
2016-06-19T12:06:14.106Z,30.69
2016-06-19T12:07:14.125Z,30.69
2016-06-19T12:08:14.786Z,30.68
2016-06-19T12:09:14.819Z,30.88
2016-06-19T12:10:14.229Z,30.83
2016-06-19T12:11:14.263Z,30.9
2016-06-19T12:12:14.315Z,30.85
2016-06-19T12:13:14.959Z,30.88
2016-06-19T12:14:14.368Z,30.9
2016-06-19T12:15:14.387Z,30.84
2016-06-19T12:16:15.047Z,30.83
2016-06-19T12:17:14.456Z,30.72
2016-06-19T12:18:14.507Z,30.77
2016-06-19T12:19:14.526Z,30.73
2016-06-19T12:20:14.561Z,30.77
2016-06-19T12:21:15.206Z,30.84
2016-06-19T12:22:17.114Z,30.81
2016-06-19T12:23:14.649Z,30.8
2016-06-19T12:24:14.684Z,30.85
2016-06-19T12:25:14.719Z,30.87
2016-06-19T12:26:14.754Z,30.84
2016-06-19T12:27:14.788Z,30.99
2016-06-19T12:28:14.822Z,31.05
2016-06-19T12:29:14.858Z,31.07
2016-06-19T12:30:14.893Z,31.09
2016-06-19T12:31:14.926Z,31.06
2016-06-19T12:32:14.961Z,31.03
2016-06-19T12:33:15.606Z,31.12
2016-06-19T12:34:15.012Z,31.1
2016-06-19T12:35:15.062Z,31.18
2016-06-19T12:36:15.112Z,31.2
2016-06-19T12:37:15.116Z,31.27
2016-06-19T12:38:15.150Z,31.36
2016-06-19T12:39:15.187Z,31.37
2016-06-19T12:40:15.220Z,31.31
2016-06-19T12:41:15.255Z,31.42
2016-06-19T12:42:15.337Z,31.56
2016-06-19T12:43:15.325Z,31.47
2016-06-19T12:44:15.344Z,31.54
2016-06-19T12:45:15.394Z,31.58
2016-06-19T12:46:15.414Z,31.7
2016-06-19T12:47:15.463Z,31.7
2016-06-19T12:48:15.482Z,31.81
2016-06-19T12:49:15.517Z,31.97
2016-06-19T12:50:15.552Z,31.89
2016-06-19T12:51:15.586Z,31.93
2016-06-19T12:52:16.246Z,31.81
2016-06-19T12:53:16.894Z,31.8
2016-06-19T12:54:15.800Z,31.76
2016-06-19T12:55:15.835Z,31.7
2016-06-19T12:56:15.760Z,31.7